Time;durP1;ratioP1;P1;durP2;ratioP2;P2;SDS_P1;SDS_P2;PMS_P1;PMS_P2;Temp;Humidity;BMP_temperature;BMP_pressure;BME280_temperature;BME280_humidity;BME280_pressure;Samples;Min_cycle;Max_cycle;Signal;HPM_P1;HPM_P2
2024/01/04 00:00:44;;;;;;;2.35;0.55;;;10.00;99.90;;;;;;5040176;28;20193;-71
2024/01/04 00:03:12;;;;;;;3.63;0.80;;;10.00;99.90;;;;;;5037262;28;20209;-71
2024/01/04 00:05:39;;;;;;;1.90;0.50;;;9.80;99.90;;;;;;5038783;28;20169;-71
2024/01/04 00:08:07;;;;;;;0.60;0.40;;;9.90;99.90;;;;;;5039178;28;20197;-71
2024/01/04 00:10:33;;;;;;;0.82;0.40;;;9.70;99.90;;;;;;5038642;28;20181;-71
2024/01/04 00:12:58;;;;;;;0.50;0.30;;;9.60;99.90;;;;;;5039283;28;20183;-70
2024/01/04 00:15:24;;;;;;;1.63;0.40;;;9.50;99.90;;;;;;5035645;28;20468;-70
2024/01/04 00:17:49;;;;;;;0.40;0.30;;;9.40;99.90;;;;;;5039558;28;20205;-70
2024/01/04 00:20:15;;;;;;;1.38;0.40;;;9.40;99.90;;;;;;5038285;28;20235;-71
2024/01/04 00:22:43;;;;;;;1.08;0.30;;;9.30;99.90;;;;;;5039919;28;20207;-70
2024/01/04 00:25:09;;;;;;;0.30;0.30;;;9.20;99.90;;;;;;5045398;28;20193;-71
2024/01/04 00:27:35;;;;;;;0.63;0.32;;;9.20;99.90;;;;;;5039159;28;20186;-71
2024/01/04 00:30:01;;;;;;;0.52;0.20;;;9.10;99.90;;;;;;5044805;28;20256;-69
2024/01/04 00:32:29;;;;;;;0.60;0.30;;;9.10;99.90;;;;;;5040144;28;20189;-68
2024/01/04 00:34:54;;;;;;;1.13;0.47;;;9.00;99.90;;;;;;5036908;28;20191;-68
2024/01/04 00:37:22;;;;;;;1.40;0.30;;;9.00;99.90;;;;;;5031894;28;20178;-67
2024/01/04 00:39:50;;;;;;;1.67;0.40;;;9.00;99.90;;;;;;5036903;28;20201;-67
2024/01/04 00:42:16;;;;;;;0.63;0.33;;;9.00;99.90;;;;;;5034723;28;20177;-68
2024/01/04 00:44:41;;;;;;;1.70;0.40;;;9.00;99.90;;;;;;5042823;28;20176;-68
2024/01/04 00:47:09;;;;;;;0.80;0.40;;;9.00;99.90;;;;;;5039877;28;20475;-69
2024/01/04 00:49:37;;;;;;;0.47;0.30;;;8.90;99.90;;;;;;5038627;28;20177;-69
2024/01/04 00:52:04;;;;;;;0.50;0.37;;;9.00;99.90;;;;;;5037788;28;20417;-69
2024/01/04 00:54:29;;;;;;;0.55;0.20;;;9.00;99.90;;;;;;5037741;28;20197;-69
2024/01/04 00:56:55;;;;;;;0.67;0.30;;;9.00;99.90;;;;;;5038876;28;20275;-68
2024/01/04 00:59:21;;;;;;;1.20;0.30;;;9.00;99.90;;;;;;5038033;28;20200;-68
2024/01/04 01:01:49;;;;;;;1.73;0.40;;;9.10;99.90;;;;;;5038362;28;20196;-68
2024/01/04 01:04:15;;;;;;;1.55;0.50;;;9.10;99.90;;;;;;5040112;28;20222;-69
2024/01/04 01:06:42;;;;;;;0.60;0.45;;;9.10;99.90;;;;;;5038395;28;20181;-69
2024/01/04 01:09:08;;;;;;;0.75;0.30;;;9.10;99.90;;;;;;5037475;28;20174;-69
2024/01/04 01:11:36;;;;;;;0.75;0.40;;;9.10;99.90;;;;;;5050884;28;20177;-70
2024/01/04 01:14:04;;;;;;;1.13;0.40;;;9.20;99.90;;;;;;5036958;28;20178;-69
2024/01/04 01:16:29;;;;;;;1.45;0.50;;;9.20;99.90;;;;;;5034984;28;20375;-70
2024/01/04 01:18:55;;;;;;;0.77;0.30;;;9.20;99.90;;;;;;5038264;28;20288;-69
2024/01/04 01:21:23;;;;;;;0.55;0.30;;;9.30;99.90;;;;;;5038842;28;20181;-69
2024/01/04 01:23:48;;;;;;;0.60;0.30;;;9.30;99.90;;;;;;5034988;28;20170;-68
2024/01/04 01:26:16;;;;;;;0.40;0.32;;;9.40;99.90;;;;;;5036768;28;20320;-68
2024/01/04 01:28:47;;;;;;;1.05;0.52;;;9.40;99.90;;;;;;5033332;28;20524;-68
2024/01/04 01:31:12;;;;;;;1.52;0.47;;;9.50;99.90;;;;;;5039048;28;20177;-68
2024/01/04 01:33:42;;;;;;;0.55;0.38;;;9.50;99.90;;;;;;5047409;28;20205;-68
2024/01/04 01:36:09;;;;;;;0.47;0.32;;;9.50;99.90;;;;;;5045040;28;20177;-68
2024/01/04 01:38:35;;;;;;;0.68;0.32;;;9.60;99.90;;;;;;5038032;28;20213;-68
2024/01/04 01:41:00;;;;;;;0.50;0.30;;;9.60;99.90;;;;;;5039072;28;20197;-67
2024/01/04 01:43:26;;;;;;;0.28;0.15;;;9.60;99.90;;;;;;5039695;28;20177;-68
2024/01/04 01:45:54;;;;;;;0.60;0.30;;;9.60;99.90;;;;;;5029489;28;20174;-68
2024/01/04 01:48:20;;;;;;;1.15;0.40;;;9.60;99.90;;;;;;5024324;28;20197;-67
2024/01/04 01:50:50;;;;;;;1.45;0.52;;;9.70;99.90;;;;;;5037110;28;20185;-67
2024/01/04 01:53:19;;;;;;;0.85;0.43;;;9.70;99.90;;;;;;5039119;28;20259;-68
2024/01/04 01:55:46;;;;;;;0.80;0.57;;;9.70;99.90;;;;;;5033851;28;20201;-67
2024/01/04 01:58:15;;;;;;;2.15;0.60;;;9.70;99.90;;;;;;5032394;28;20213;-68
2024/01/04 02:00:40;;;;;;;2.88;0.70;;;9.80;99.90;;;;;;5035003;28;20177;-66
2024/01/04 02:03:11;;;;;;;1.15;0.75;;;9.90;99.90;;;;;;5052316;28;20197;-67
2024/01/04 02:05:38;;;;;;;1.27;0.65;;;9.90;99.90;;;;;;5042087;28;20199;-67
2024/01/04 02:08:08;;;;;;;1.10;0.70;;;9.90;99.90;;;;;;5036581;28;20192;-67
2024/01/04 02:10:33;;;;;;;3.35;1.10;;;10.00;99.90;;;;;;5051597;28;20215;-66
2024/01/04 02:12:59;;;;;;;1.38;0.98;;;10.00;99.90;;;;;;5038118;28;20181;-65
2024/01/04 02:15:27;;;;;;;1.52;0.80;;;10.00;99.90;;;;;;5035715;28;20288;-66
2024/01/04 02:17:53;;;;;;;1.77;1.00;;;10.10;99.90;;;;;;5030486;28;20193;-67
2024/01/04 02:20:19;;;;;;;2.58;1.00;;;10.10;99.90;;;;;;5054795;28;20181;-68
2024/01/04 02:22:45;;;;;;;2.15;1.10;;;10.10;99.90;;;;;;5035762;28;20178;-68
2024/01/04 02:25:10;;;;;;;1.60;0.90;;;10.20;99.90;;;;;;5037086;28;20196;-67
2024/01/04 02:27:36;;;;;;;5.05;1.20;;;10.20;99.90;;;;;;5035132;28;20203;-68
2024/01/04 02:30:02;;;;;;;1.77;1.00;;;10.30;99.90;;;;;;5036813;28;20339;-67
2024/01/04 02:32:32;;;;;;;2.40;0.90;;;10.20;99.90;;;;;;5035793;28;20177;-67
2024/01/04 02:35:00;;;;;;;2.58;1.10;;;10.30;99.90;;;;;;5038236;28;20197;-68
2024/01/04 02:37:26;;;;;;;1.70;0.90;;;10.30;99.90;;;;;;5035602;28;20188;-68
2024/01/04 02:39:51;;;;;;;2.50;1.30;;;10.30;99.90;;;;;;5037942;28;20170;-69
2024/01/04 02:42:17;;;;;;;1.73;0.98;;;10.30;99.90;;;;;;5036902;28;20200;-69
2024/01/04 02:44:43;;;;;;;2.55;0.80;;;10.30;99.90;;;;;;5036405;28;20173;-68
2024/01/04 02:47:08;;;;;;;2.95;0.98;;;10.30;99.90;;;;;;5037126;28;20191;-69
2024/01/04 02:49:34;;;;;;;1.65;0.90;;;10.30;99.90;;;;;;5037405;28;20204;-69
2024/01/04 02:52:02;;;;;;;1.52;0.80;;;10.30;99.90;;;;;;5023458;28;20181;-68
2024/01/04 02:54:30;;;;;;;1.10;0.70;;;10.30;99.90;;;;;;5038191;28;20178;-69
2024/01/04 02:56:55;;;;;;;1.20;0.75;;;10.30;99.90;;;;;;5033059;28;20204;-70
2024/01/04 02:59:26;;;;;;;2.10;0.90;;;10.30;99.90;;;;;;5034413;28;20273;-69
2024/01/04 03:01:51;;;;;;;3.10;0.88;;;10.30;99.90;;;;;;5034771;28;20177;-69
2024/01/04 03:04:17;;;;;;;2.25;0.85;;;10.40;99.90;;;;;;5027467;28;20212;-69
2024/01/04 03:06:43;;;;;;;1.92;0.73;;;10.40;99.90;;;;;;5048083;28;20265;-70
2024/01/04 03:09:09;;;;;;;4.32;1.10;;;10.40;99.90;;;;;;5035661;28;20177;-69
2024/01/04 03:11:34;;;;;;;2.20;1.38;;;10.40;99.90;;;;;;5034461;28;20235;-70
2024/01/04 03:14:02;;;;;;;2.45;1.00;;;10.40;99.90;;;;;;5034108;28;20181;-69
2024/01/04 03:16:29;;;;;;;2.42;0.90;;;10.40;99.90;;;;;;5034896;28;20268;-69
2024/01/04 03:18:57;;;;;;;1.05;0.80;;;10.40;99.90;;;;;;5036200;28;20300;-69
2024/01/04 03:21:22;;;;;;;1.92;0.90;;;10.40;99.90;;;;;;5033631;28;20351;-69
2024/01/04 03:23:52;;;;;;;1.73;0.90;;;10.30;99.90;;;;;;5034852;28;20273;-70
2024/01/04 03:26:20;;;;;;;2.20;0.98;;;10.40;99.90;;;;;;5048570;28;20212;-70
2024/01/04 03:28:45;;;;;;;3.38;1.02;;;10.40;99.90;;;;;;5039335;28;20184;-66
2024/01/04 03:31:11;;;;;;;1.83;0.93;;;10.50;99.90;;;;;;5035352;28;20185;-68
2024/01/04 03:33:36;;;;;;;1.92;0.90;;;10.40;99.90;;;;;;5053184;28;20252;-67
2024/01/04 03:36:02;;;;;;;1.73;0.90;;;10.40;99.90;;;;;;5036271;28;20253;-69
2024/01/04 03:38:31;;;;;;;1.35;1.00;;;10.30;99.90;;;;;;5053732;28;20212;-68
2024/01/04 03:40:56;;;;;;;1.90;0.80;;;10.30;99.90;;;;;;5036969;28;20166;-69
2024/01/04 03:43:22;;;;;;;1.33;0.80;;;10.40;99.90;;;;;;5030488;28;20227;-68
2024/01/04 03:45:47;;;;;;;1.50;0.90;;;10.30;99.90;;;;;;5035934;28;20359;-69
2024/01/04 03:48:15;;;;;;;1.27;0.80;;;10.30;99.90;;;;;;5034126;28;20182;-69
2024/01/04 03:50:41;;;;;;;1.80;0.80;;;10.30;99.90;;;;;;5034015;28;20284;-69
2024/01/04 03:53:06;;;;;;;2.85;1.10;;;10.30;99.90;;;;;;5037904;28;20300;-68
2024/01/04 03:55:35;;;;;;;1.67;0.70;;;10.30;99.90;;;;;;5035231;28;20173;-69
2024/01/04 03:58:03;;;;;;;1.95;1.00;;;10.30;99.90;;;;;;5021216;28;20212;-68
2024/01/04 04:00:31;;;;;;;2.40;1.23;;;10.30;99.90;;;;;;5035958;28;20237;-70
2024/01/04 04:02:59;;;;;;;1.17;0.80;;;10.30;99.90;;;;;;5044329;28;20273;-69
2024/01/04 04:05:27;;;;;;;1.92;1.00;;;10.30;99.90;;;;;;5034012;28;20215;-69
2024/01/04 04:07:52;;;;;;;1.98;0.80;;;10.30;99.90;;;;;;5034024;28;20188;-68
2024/01/04 04:10:22;;;;;;;1.33;0.90;;;10.30;99.90;;;;;;5033720;28;20173;-68
2024/01/04 04:12:51;;;;;;;2.80;0.80;;;10.30;99.90;;;;;;5034496;28;20238;-69
2024/01/04 04:15:19;;;;;;;2.45;1.00;;;10.30;99.90;;;;;;5050287;28;20174;-69
2024/01/04 04:17:45;;;;;;;3.22;1.33;;;10.30;99.90;;;;;;5022711;28;20189;-68
2024/01/04 04:20:11;;;;;;;3.20;1.27;;;10.30;99.90;;;;;;5034437;28;20184;-68
2024/01/04 04:22:38;;;;;;;4.10;1.20;;;10.30;99.90;;;;;;5031169;28;20174;-68
2024/01/04 04:25:04;;;;;;;2.45;1.08;;;10.40;99.90;;;;;;5031645;28;20166;-68
2024/01/04 04:27:30;;;;;;;1.85;1.10;;;10.40;99.90;;;;;;5035613;28;20188;-68
2024/01/04 04:29:55;;;;;;;1.92;1.13;;;10.40;99.90;;;;;;5035154;28;20182;-68
2024/01/04 04:32:21;;;;;;;2.72;1.10;;;10.40;99.90;;;;;;5033689;28;20198;-68
2024/01/04 04:34:46;;;;;;;1.30;0.80;;;10.40;99.90;;;;;;5035398;28;20169;-68
2024/01/04 04:37:14;;;;;;;2.78;1.08;;;10.40;99.90;;;;;;5032363;28;20265;-68
2024/01/04 04:39:42;;;;;;;1.88;0.90;;;10.40;99.90;;;;;;5039468;28;20193;-68
2024/01/04 04:42:07;;;;;;;1.85;0.95;;;10.30;99.90;;;;;;5039985;28;20170;-67
2024/01/04 04:44:33;;;;;;;1.27;0.80;;;10.40;99.90;;;;;;5038922;28;20365;-68
2024/01/04 04:47:01;;;;;;;2.20;0.90;;;10.50;99.90;;;;;;5041084;28;20189;-67
2024/01/04 04:49:28;;;;;;;2.50;1.00;;;10.40;99.90;;;;;;5036898;28;20193;-68
2024/01/04 04:51:53;;;;;;;1.38;1.00;;;10.40;99.90;;;;;;5030192;28;20201;-68
2024/01/04 04:54:19;;;;;;;1.63;0.90;;;10.40;99.90;;;;;;5039282;28;20196;-68
2024/01/04 04:56:45;;;;;;;2.15;1.00;;;10.40;99.90;;;;;;5038602;28;20197;-68
2024/01/04 04:59:13;;;;;;;1.20;0.70;;;10.30;99.90;;;;;;5038976;28;20204;-65
2024/01/04 05:01:44;;;;;;;1.88;0.70;;;10.30;99.90;;;;;;5048050;28;20197;-68
2024/01/04 05:04:10;;;;;;;1.52;0.70;;;10.30;99.90;;;;;;5038778;28;20227;-67
2024/01/04 05:06:36;;;;;;;1.38;0.80;;;10.20;99.90;;;;;;5035852;28;20428;-67
2024/01/04 05:09:03;;;;;;;1.30;0.52;;;10.20;99.90;;;;;;5036966;28;20260;-66
2024/01/04 05:11:29;;;;;;;1.85;0.55;;;10.10;99.90;;;;;;5026383;28;20178;-66
2024/01/04 05:13:55;;;;;;;1.23;0.70;;;9.90;99.90;;;;;;5038179;28;20177;-66
2024/01/04 05:16:20;;;;;;;0.88;0.60;;;9.80;99.90;;;;;;5033361;28;20185;-66
2024/01/04 05:18:46;;;;;;;0.90;0.50;;;9.70;99.90;;;;;;5046535;28;20265;-66
2024/01/04 05:21:12;;;;;;;0.65;0.50;;;9.70;99.90;;;;;;5037929;28;20201;-66
2024/01/04 05:23:37;;;;;;;0.70;0.50;;;9.60;99.90;;;;;;5036819;28;20175;-66
2024/01/04 05:26:03;;;;;;;0.77;0.50;;;9.50;99.90;;;;;;5037634;28;20177;-66
2024/01/04 05:28:28;;;;;;;1.75;0.52;;;9.40;99.90;;;;;;5037043;28;20181;-65
2024/01/04 05:30:56;;;;;;;1.27;0.57;;;9.40;99.90;;;;;;5030884;28;20211;-66
2024/01/04 05:33:22;;;;;;;0.70;0.50;;;9.30;99.90;;;;;;5035619;28;20275;-66
2024/01/04 05:35:51;;;;;;;0.82;0.50;;;9.30;99.90;;;;;;5029616;28;20181;-66
2024/01/04 05:38:19;;;;;;;0.32;0.32;;;9.30;99.90;;;;;;5029278;28;20210;-66
2024/01/04 05:40:47;;;;;;;1.53;0.50;;;9.20;99.90;;;;;;5053318;28;20191;-66
2024/01/04 05:43:14;;;;;;;2.00;0.63;;;9.20;99.90;;;;;;5045636;28;20205;-75
2024/01/04 05:45:40;;;;;;;1.00;0.65;;;9.20;99.90;;;;;;5039047;28;20205;-73
2024/01/04 05:48:06;;;;;;;0.80;0.67;;;9.10;99.90;;;;;;5039139;28;20196;-76
2024/01/04 05:50:34;;;;;;;1.65;0.80;;;9.10;99.90;;;;;;5037630;28;20174;-76
2024/01/04 05:53:04;;;;;;;0.98;0.80;;;9.10;99.90;;;;;;5019126;28;20206;-74
2024/01/04 05:55:30;;;;;;;1.80;0.80;;;9.10;99.90;;;;;;5038746;28;20174;-78
2024/01/04 05:57:55;;;;;;;0.88;0.70;;;9.00;99.90;;;;;;5037467;28;20274;-77
2024/01/04 06:00:23;;;;;;;0.70;0.55;;;9.00;99.90;;;;;;5044424;28;20193;-71
2024/01/04 06:02:49;;;;;;;1.63;0.70;;;9.00;99.90;;;;;;5033366;28;20178;-75
2024/01/04 06:05:17;;;;;;;1.23;0.90;;;9.00;99.90;;;;;;5036895;28;20181;-72
2024/01/04 06:07:42;;;;;;;1.57;0.60;;;9.00;99.90;;;;;;5038304;28;20458;-73
2024/01/04 06:10:08;;;;;;;1.30;0.77;;;9.00;99.90;;;;;;5035987;28;20178;-74
2024/01/04 06:12:34;;;;;;;1.30;0.60;;;9.00;99.90;;;;;;5036556;28;20191;-72
2024/01/04 06:15:03;;;;;;;0.70;0.60;;;9.00;99.90;;;;;;5037429;28;20246;-72
2024/01/04 06:17:30;;;;;;;1.57;0.73;;;9.00;99.90;;;;;;5036525;28;20221;-71
2024/01/04 06:19:56;;;;;;;1.90;0.80;;;8.90;99.90;;;;;;5036639;28;20224;-71
2024/01/04 06:22:22;;;;;;;1.77;0.80;;;9.00;99.90;;;;;;5038221;28;20255;-70
2024/01/04 06:24:47;;;;;;;1.90;0.60;;;9.00;99.90;;;;;;5034957;28;20169;-71
2024/01/04 06:27:15;;;;;;;1.37;1.00;;;9.00;99.90;;;;;;5034138;28;20252;-71
2024/01/04 06:29:46;;;;;;;1.95;1.42;;;9.10;99.90;;;;;;5049191;28;20326;-70
2024/01/04 06:32:12;;;;;;;1.07;0.93;;;9.10;99.90;;;;;;5035417;28;20186;-71
2024/01/04 06:34:37;;;;;;;1.10;0.77;;;9.00;99.90;;;;;;5026933;28;20189;-69
2024/01/04 06:37:03;;;;;;;0.93;0.80;;;9.00;99.90;;;;;;5038447;28;20201;-68
2024/01/04 06:39:31;;;;;;;2.13;0.80;;;9.00;99.90;;;;;;5037111;28;20189;-72
2024/01/04 06:41:57;;;;;;;1.63;0.90;;;9.00;99.90;;;;;;5021722;28;20233;-72
2024/01/04 06:44:25;;;;;;;1.15;0.80;;;9.00;99.90;;;;;;5037092;28;20272;-71
2024/01/04 06:46:50;;;;;;;0.95;0.70;;;9.00;99.90;;;;;;5037744;28;20181;-71
2024/01/04 06:49:21;;;;;;;0.60;0.60;;;9.10;99.90;;;;;;5036545;28;20185;-72
2024/01/04 06:51:49;;;;;;;1.20;0.80;;;9.00;99.90;;;;;;5036255;28;20213;-72
2024/01/04 06:54:14;;;;;;;0.93;0.63;;;9.10;99.90;;;;;;5030848;28;20268;-72
2024/01/04 06:56:40;;;;;;;1.20;0.70;;;9.10;99.90;;;;;;5034351;28;20265;-72
2024/01/04 06:59:05;;;;;;;2.83;0.60;;;9.10;99.90;;;;;;5037928;28;20235;-71
2024/01/04 07:01:33;;;;;;;2.03;0.70;;;9.20;99.90;;;;;;5036039;28;20181;-71
2024/01/04 07:03:59;;;;;;;0.60;0.60;;;9.20;99.90;;;;;;5033625;28;20192;-70
2024/01/04 07:06:27;;;;;;;1.35;0.70;;;9.20;99.90;;;;;;5037340;28;20208;-71
2024/01/04 07:08:52;;;;;;;1.73;0.77;;;9.20;99.90;;;;;;5034514;28;20185;-72
2024/01/04 07:11:20;;;;;;;1.40;0.73;;;9.20;99.90;;;;;;5020265;28;20178;-71
2024/01/04 07:13:45;;;;;;;1.50;0.80;;;9.30;99.90;;;;;;5037846;28;20177;-72
2024/01/04 07:16:11;;;;;;;0.95;0.70;;;9.30;99.90;;;;;;5036325;28;20200;-72
2024/01/04 07:18:37;;;;;;;0.82;0.65;;;9.30;99.90;;;;;;5037696;28;20524;-71
2024/01/04 07:21:03;;;;;;;0.90;0.80;;;9.20;99.90;;;;;;5037514;28;20263;-72
2024/01/04 07:23:31;;;;;;;0.90;0.77;;;9.20;99.90;;;;;;5032315;28;20204;-72
2024/01/04 07:25:57;;;;;;;1.00;0.70;;;9.20;99.90;;;;;;5037416;28;20181;-72
2024/01/04 07:28:25;;;;;;;2.10;1.00;;;9.30;99.90;;;;;;5037257;28;20197;-71
2024/01/04 07:30:53;;;;;;;2.00;0.95;;;9.20;99.90;;;;;;5037855;28;20242;-72
2024/01/04 07:33:22;;;;;;;1.98;1.10;;;9.20;99.90;;;;;;5037434;28;20207;-71
2024/01/04 07:35:49;;;;;;;1.27;0.95;;;9.20;99.90;;;;;;5037678;28;20219;-72
2024/01/04 07:38:15;;;;;;;1.17;0.80;;;9.20;99.90;;;;;;5037305;28;20193;-73
2024/01/04 07:40:45;;;;;;;1.48;0.82;;;9.20;99.90;;;;;;5037455;28;20260;-72
2024/01/04 07:43:11;;;;;;;1.65;0.80;;;9.20;99.90;;;;;;5037100;28;20209;-72
2024/01/04 07:45:37;;;;;;;2.33;1.00;;;9.30;99.90;;;;;;5037017;28;20211;-71
2024/01/04 07:48:06;;;;;;;1.00;0.90;;;9.30;99.90;;;;;;5054516;28;20173;-73
2024/01/04 07:50:31;;;;;;;1.85;0.90;;;9.30;99.90;;;;;;5037373;28;20197;-73
2024/01/04 07:52:59;;;;;;;1.38;0.80;;;9.30;99.90;;;;;;5037398;28;20196;-73
2024/01/04 07:55:24;;;;;;;1.35;0.95;;;9.30;99.90;;;;;;5037069;28;20173;-73
2024/01/04 07:57:50;;;;;;;1.93;0.90;;;9.30;99.90;;;;;;5054482;28;20211;-73
2024/01/04 08:00:19;;;;;;;1.05;0.90;;;9.40;99.90;;;;;;5037493;28;20173;-73
2024/01/04 08:02:49;;;;;;;1.20;1.00;;;9.40;99.90;;;;;;5037008;28;20169;-71
2024/01/04 08:05:15;;;;;;;4.20;1.08;;;9.40;99.90;;;;;;5037068;28;20521;-73
2024/01/04 08:07:43;;;;;;;1.35;0.85;;;9.40;99.90;;;;;;5037242;28;20197;-73
2024/01/04 08:10:11;;;;;;;2.97;1.20;;;9.40;99.90;;;;;;5036652;28;20169;-73
2024/01/04 08:12:40;;;;;;;1.63;1.20;;;9.50;99.90;;;;;;5037454;28;20201;-74
2024/01/04 08:15:09;;;;;;;2.00;1.20;;;9.50;99.90;;;;;;5021042;28;20178;-73
2024/01/04 08:17:37;;;;;;;3.35;1.10;;;9.50;99.90;;;;;;5021239;28;20186;-75
2024/01/04 08:20:06;;;;;;;3.80;1.17;;;9.60;99.90;;;;;;5032475;28;20217;-74
2024/01/04 08:22:31;;;;;;;1.13;0.80;;;9.60;99.90;;;;;;5052005;28;20172;-74
2024/01/04 08:24:57;;;;;;;1.63;1.00;;;9.60;99.90;;;;;;5042411;28;20178;-74
2024/01/04 08:27:25;;;;;;;2.40;0.95;;;9.60;99.90;;;;;;5040893;28;20189;-74
2024/01/04 08:29:51;;;;;;;2.22;1.08;;;9.70;99.90;;;;;;5040910;28;20165;-73
2024/01/04 08:32:17;;;;;;;2.15;1.00;;;9.70;99.90;;;;;;5040557;28;20328;-75
2024/01/04 08:34:43;;;;;;;3.08;1.10;;;9.60;99.90;;;;;;5040897;28;20290;-75
2024/01/04 08:37:10;;;;;;;1.85;1.05;;;9.70;99.90;;;;;;5040579;28;20204;-75
2024/01/04 08:39:38;;;;;;;2.72;1.02;;;9.80;99.90;;;;;;5040480;28;20220;-76
2024/01/04 08:42:04;;;;;;;3.60;1.00;;;9.80;99.90;;;;;;5040577;28;20201;-73
2024/01/04 08:44:34;;;;;;;1.70;1.00;;;9.80;99.90;;;;;;5040457;28;20172;-78
2024/01/04 08:47:00;;;;;;;2.35;1.00;;;9.80;99.90;;;;;;5040722;28;20169;-77
2024/01/04 08:49:28;;;;;;;1.35;0.90;;;9.90;99.90;;;;;;5040347;28;20204;-77
2024/01/04 08:51:53;;;;;;;2.00;1.00;;;9.90;99.90;;;;;;5040740;28;20280;-77
2024/01/04 08:54:19;;;;;;;1.67;0.80;;;9.90;99.90;;;;;;5040194;28;20200;-79
2024/01/04 08:56:44;;;;;;;1.63;0.85;;;10.00;99.90;;;;;;5040331;28;20190;-78
2024/01/04 08:59:10;;;;;;;1.30;0.82;;;10.00;99.90;;;;;;5040283;28;20189;-73
2024/01/04 09:01:35;;;;;;;1.88;0.90;;;10.00;99.90;;;;;;5040525;28;20169;-76
2024/01/04 09:04:01;;;;;;;1.60;0.80;;;10.00;99.90;;;;;;5040210;28;20170;-76
2024/01/04 09:06:31;;;;;;;1.00;0.70;;;10.10;99.90;;;;;;5057129;28;20185;-76
2024/01/04 09:08:59;;;;;;;1.80;0.70;;;10.20;99.90;;;;;;5055102;28;20281;-76
2024/01/04 09:11:30;;;;;;;0.93;0.70;;;10.20;99.90;;;;;;5056911;28;20339;-76
2024/01/04 09:13:57;;;;;;;1.30;0.80;;;10.20;99.90;;;;;;5040703;28;20173;-73
2024/01/04 09:16:25;;;;;;;1.58;0.80;;;10.20;99.90;;;;;;5039013;28;20239;-77
2024/01/04 09:18:50;;;;;;;1.92;0.90;;;10.30;99.90;;;;;;5034514;28;20303;-77
2024/01/04 09:21:18;;;;;;;0.55;0.50;;;10.30;99.90;;;;;;5039775;28;20224;-77
2024/01/04 09:23:44;;;;;;;0.95;0.60;;;10.50;99.90;;;;;;5036190;28;20177;-79
2024/01/04 09:26:15;;;;;;;0.85;0.50;;;10.40;99.90;;;;;;5020422;28;20194;-80
2024/01/04 09:28:43;;;;;;;0.70;0.60;;;10.50;99.90;;;;;;5052955;28;20185;-80
2024/01/04 09:31:09;;;;;;;0.70;0.63;;;10.60;99.90;;;;;;5040068;28;20173;-79
2024/01/04 09:33:39;;;;;;;1.15;0.80;;;10.60;99.90;;;;;;5039709;28;20216;-76
2024/01/04 09:36:06;;;;;;;0.82;0.60;;;10.70;99.90;;;;;;5040196;28;20192;-79
2024/01/04 09:38:34;;;;;;;1.13;0.77;;;10.60;99.90;;;;;;5039501;28;20193;-79
2024/01/04 09:41:25;;;;;;;1.10;0.80;;;10.60;99.90;;;;;;5039927;28;20169;-77
2024/01/04 09:44:01;;;;;;;1.40;0.93;;;10.70;99.90;;;;;;5025787;28;20220;-80
2024/01/04 09:46:33;;;;;;;1.50;0.85;;;10.60;99.90;;;;;;5039546;28;20197;-78
2024/01/04 09:48:59;;;;;;;1.67;0.80;;;10.60;99.90;;;;;;5040333;28;20177;-79
2024/01/04 09:51:27;;;;;;;1.98;0.93;;;10.60;99.90;;;;;;5039351;28;20193;-81
2024/01/04 09:53:56;;;;;;;2.67;0.80;;;10.60;99.90;;;;;;5056537;28;20193;-79
2024/01/04 09:56:29;;;;;;;1.92;0.88;;;10.60;99.90;;;;;;5039298;28;20177;-78
2024/01/04 09:58:57;;;;;;;1.70;1.00;;;10.70;99.90;;;;;;5056764;28;20218;-80
2024/01/04 10:01:38;;;;;;;1.00;0.85;;;10.60;99.90;;;;;;5039064;28;20227;-74
2024/01/04 10:04:17;;;;;;;0.98;0.65;;;10.60;99.90;;;;;;5039419;28;20246;-78
2024/01/04 10:06:46;;;;;;;2.00;0.70;;;10.60;99.90;;;;;;5039157;28;20196;-80
2024/01/04 10:09:21;;;;;;;2.05;0.80;;;10.60;99.90;;;;;;5039100;28;20188;-77
2024/01/04 10:12:08;;;;;;;1.33;0.60;;;10.60;99.90;;;;;;5039187;28;20181;-75
2024/01/04 10:14:34;;;;;;;1.67;0.90;;;10.60;99.90;;;;;;5038779;28;20300;-73
2024/01/04 10:17:00;;;;;;;2.95;1.00;;;10.60;99.90;;;;;;5038613;28;20204;-73
2024/01/04 10:19:30;;;;;;;1.10;0.88;;;10.60;99.90;;;;;;5038746;28;20216;-69
2024/01/04 10:22:03;;;;;;;1.40;1.00;;;10.60;99.90;;;;;;5056293;28;20189;-70
2024/01/04 10:24:32;;;;;;;2.63;1.10;;;10.70;99.90;;;;;;5038922;28;20199;-71
2024/01/04 10:27:03;;;;;;;2.65;0.90;;;10.70;99.90;;;;;;5038669;28;20169;-71
2024/01/04 10:29:36;;;;;;;1.92;1.00;;;10.70;99.90;;;;;;5040675;28;20238;-70
2024/01/04 10:32:04;;;;;;;1.63;0.80;;;10.70;99.90;;;;;;5038574;28;20177;-71
2024/01/04 10:34:35;;;;;;;1.08;0.68;;;10.70;99.90;;;;;;5038207;28;20205;-72
2024/01/04 10:37:09;;;;;;;0.98;0.70;;;10.80;99.90;;;;;;5038127;28;20260;-72
2024/01/04 10:39:36;;;;;;;1.50;0.70;;;10.80;99.90;;;;;;5038540;28;20196;-71
2024/01/04 10:42:02;;;;;;;2.00;0.85;;;10.80;99.90;;;;;;5038528;28;20182;-71
2024/01/04 10:44:33;;;;;;;1.50;0.70;;;10.80;99.90;;;;;;5038441;28;20181;-73
2024/01/04 10:47:05;;;;;;;2.40;0.70;;;10.90;99.90;;;;;;5027612;28;20174;-73
2024/01/04 10:49:31;;;;;;;0.90;0.63;;;10.90;99.90;;;;;;5018733;28;20228;-74
2024/01/04 10:52:01;;;;;;;1.50;0.65;;;11.00;99.90;;;;;;5020911;28;20177;-73
2024/01/04 10:54:37;;;;;;;0.82;0.50;;;11.10;99.90;;;;;;5038193;28;20239;-75
2024/01/04 10:57:05;;;;;;;1.58;0.60;;;11.10;99.90;;;;;;5038320;28;20209;-74
2024/01/04 10:59:32;;;;;;;0.55;0.40;;;11.20;99.90;;;;;;5038383;28;20221;-72
2024/01/04 11:01:59;;;;;;;0.90;0.40;;;11.20;99.90;;;;;;5038199;28;20206;-72
2024/01/04 11:04:25;;;;;;;2.35;0.50;;;11.20;99.90;;;;;;5038248;28;20169;-71
2024/01/04 11:06:52;;;;;;;1.10;0.43;;;11.30;99.90;;;;;;5037976;28;20197;-73
2024/01/04 11:09:19;;;;;;;0.93;0.50;;;11.20;99.90;;;;;;5037944;28;20214;-71
2024/01/04 11:11:52;;;;;;;0.35;0.30;;;11.20;99.90;;;;;;5037954;28;20173;-72
2024/01/04 11:14:18;;;;;;;0.90;0.43;;;11.20;99.90;;;;;;5037835;28;20196;-72
2024/01/04 11:16:46;;;;;;;0.77;0.40;;;11.20;99.90;;;;;;5037621;28;20208;-73
2024/01/04 11:19:45;;;;;;;0.57;0.40;;;11.20;99.90;;;;;;5037666;28;20350;-73
2024/01/04 11:22:22;;;;;;;0.90;0.60;;;11.20;99.90;;;;;;5037904;28;20185;-73
2024/01/04 11:25:23;;;;;;;1.65;0.50;;;11.20;99.90;;;;;;5037926;28;20268;-71
2024/01/04 11:27:49;;;;;;;2.08;0.70;;;11.20;99.90;;;;;;5034194;28;20251;-72
2024/01/04 11:30:18;;;;;;;0.88;0.50;;;11.20;99.90;;;;;;5037852;28;20181;-73
2024/01/04 11:32:47;;;;;;;0.60;0.40;;;11.20;99.90;;;;;;5033669;28;20197;-74
2024/01/04 11:35:12;;;;;;;0.68;0.40;;;11.30;99.90;;;;;;5035585;28;20177;-72
2024/01/04 11:37:49;;;;;;;1.30;0.60;;;11.40;99.90;;;;;;5034125;28;20186;-72
2024/01/04 11:40:26;;;;;;;1.13;0.60;;;11.50;99.90;;;;;;5017914;28;20208;-72
2024/01/04 11:42:51;;;;;;;2.55;0.80;;;11.70;99.90;;;;;;5042525;28;20172;-73
2024/01/04 11:45:20;;;;;;;2.65;0.65;;;11.90;99.90;;;;;;5042543;28;20204;-69
2024/01/04 11:47:50;;;;;;;3.03;0.70;;;12.10;99.90;;;;;;5037157;28;20177;-72
2024/01/04 11:50:26;;;;;;;2.45;0.73;;;12.10;99.90;;;;;;5037360;28;20177;-72
2024/01/04 11:53:10;;;;;;;5.63;1.13;;;12.10;99.90;;;;;;5032841;28;20237;-71
2024/01/04 11:55:36;;;;;;;3.83;1.00;;;12.00;99.90;;;;;;5017817;28;20166;-72
2024/01/04 11:58:09;;;;;;;3.83;0.88;;;11.90;99.90;;;;;;5025425;28;20196;-70
2024/01/04 12:00:36;;;;;;;2.55;1.00;;;12.10;99.90;;;;;;5036982;28;20234;-73
2024/01/04 12:03:14;;;;;;;3.15;1.25;;;12.00;99.90;;;;;;5037535;28;20252;-72
2024/01/04 12:05:53;;;;;;;5.43;1.30;;;11.90;99.90;;;;;;5037441;28;20232;-73
2024/01/04 12:08:40;;;;;;;4.78;1.27;;;11.80;99.90;;;;;;5037347;28;20173;-72
2024/01/04 12:11:07;;;;;;;4.90;1.20;;;11.80;99.90;;;;;;5036831;28;20197;-72
2024/01/04 12:13:33;;;;;;;5.43;1.17;;;11.80;99.90;;;;;;5037244;28;20169;-71
2024/01/04 12:15:59;;;;;;;4.00;1.15;;;11.80;99.90;;;;;;5037263;28;20173;-72
2024/01/04 12:18:25;;;;;;;3.03;1.00;;;11.70;99.90;;;;;;5036564;28;20209;-71
2024/01/04 12:20:51;;;;;;;3.50;1.13;;;11.80;99.90;;;;;;5037036;28;20228;-71
2024/01/04 12:23:19;;;;;;;5.10;1.40;;;11.80;99.90;;;;;;5037001;28;20229;-72
2024/01/04 12:25:47;;;;;;;2.35;1.00;;;11.70;99.90;;;;;;5037205;28;20333;-73
2024/01/04 12:28:13;;;;;;;6.22;1.33;;;11.80;99.90;;;;;;5037217;28;20180;-71
2024/01/04 12:30:40;;;;;;;4.55;1.00;;;11.80;99.90;;;;;;5036971;28;20201;-72
2024/01/04 12:33:08;;;;;;;3.03;0.95;;;11.80;99.90;;;;;;5037306;28;20178;-73
2024/01/04 12:35:34;;;;;;;2.78;1.10;;;11.90;99.90;;;;;;5036360;28;20181;-74
2024/01/04 12:38:07;;;;;;;4.22;1.38;;;12.00;99.90;;;;;;5040668;28;20173;-73
2024/01/04 12:40:40;;;;;;;6.05;1.50;;;12.10;99.90;;;;;;5053672;28;20170;-71
2024/01/04 12:43:07;;;;;;;6.75;1.63;;;12.30;99.90;;;;;;5053396;28;20284;-73
2024/01/04 12:45:35;;;;;;;5.07;1.52;;;12.30;99.90;;;;;;5053568;28;20170;-73
2024/01/04 12:48:02;;;;;;;7.05;1.35;;;12.40;99.90;;;;;;5053627;28;20181;-72
2024/01/04 12:50:31;;;;;;;7.40;1.48;;;12.40;99.90;;;;;;5053709;28;20177;-73
2024/01/04 12:52:57;;;;;;;5.25;1.50;;;12.40;99.90;;;;;;5037381;28;20173;-72